Accueil
METAR-TAF:

METAR-TAF

Aéroports :

Mönchengladbach, Allemagne

latitude: 51-13-49N, longitude: 006-30-16E, altitude: 38 m

Observation

Le bulletin a été fait il y a 20 minutes, à 07:50 UTC
Vent 7 kt de ouest/sud-ouest, variant entre sud/sud-est et ouest/nord-ouest
Température 11°C
Humidité 82%
Pression 1018 hPa
Visibilité 10 km ou plus
Quelques nuages à une hauteur de 3000 ft
Nuages épars à une hauteur de 5000 ft

METAR: EDLN 230750Z 24007KT 150V290 9999 FEW030 SCT050 11/08 Q1018

Heure: 10:10 (08:10 UTC)

Prévision

Le bulletin a été fait il y a 1 heure et 20 minutes, à 06:50 UTC
Prévision valable du 23 à 07 UTC au 23 à 15 UTC
Vent 9 kt de ouest/sud-ouest
Visibilité 10 km ou plus
Nuages fragmentés à une hauteur de 4000 ft

TAF: EDLN 230650Z 2307/2315 25009KT 9999 BKN040

Observations et prévisions météorologiques de plus de 4000 aéroports (messages METAR et TAF).

Les stations disponibles sont représentées par des disques jaunes et rouges sur la carte.

Passer la souris dessus pour voir le nom de la station.

Cliquer dessus pour voir les observations et prévisions météorologiques.

Pour changer de carte: cliquez sur les boutons verts avec une croix noire pour zoomer, sur le bouton vert avec un tiret pour effectuer un zoom arrière, ou sur les flèches vertes pour les cartes adjacentes.


METAR-TAF: